sensor_id;sensor_type;location;lat;lon;timestamp;P1;durP1;ratioP1;P2;durP2;ratioP2
17631;SDS011;8934;51.194;17.150;2024-01-30T00:00:56;28.77;;;12.88;;
17631;SDS011;8934;51.194;17.150;2024-01-30T00:03:44;35.92;;;13.10;;
17631;SDS011;8934;51.194;17.150;2024-01-30T00:06:32;39.00;;;14.00;;
17631;SDS011;8934;51.194;17.150;2024-01-30T00:09:19;42.30;;;16.85;;
17631;SDS011;8934;51.194;17.150;2024-01-30T00:12:06;41.00;;;15.30;;
17631;SDS011;8934;51.194;17.150;2024-01-30T00:14:55;41.90;;;16.23;;
17631;SDS011;8934;51.194;17.150;2024-01-30T00:17:43;26.25;;;13.70;;
17631;SDS011;8934;51.194;17.150;2024-01-30T00:20:30;48.80;;;13.60;;
17631;SDS011;8934;51.194;17.150;2024-01-30T00:23:18;41.53;;;15.05;;
17631;SDS011;8934;51.194;17.150;2024-01-30T00:26:05;28.65;;;13.57;;
17631;SDS011;8934;51.194;17.150;2024-01-30T00:28:52;29.00;;;13.90;;
17631;SDS011;8934;51.194;17.150;2024-01-30T00:31:41;32.80;;;14.73;;
17631;SDS011;8934;51.194;17.150;2024-01-30T00:34:28;33.40;;;15.88;;
17631;SDS011;8934;51.194;17.150;2024-01-30T00:37:16;42.13;;;18.38;;
17631;SDS011;8934;51.194;17.150;2024-01-30T00:40:03;40.50;;;14.88;;
17631;SDS011;8934;51.194;17.150;2024-01-30T00:42:52;34.47;;;14.80;;
17631;SDS011;8934;51.194;17.150;2024-01-30T00:45:39;28.30;;;12.23;;
17631;SDS011;8934;51.194;17.150;2024-01-30T00:48:28;36.33;;;15.43;;
17631;SDS011;8934;51.194;17.150;2024-01-30T00:51:15;31.42;;;13.98;;
17631;SDS011;8934;51.194;17.150;2024-01-30T00:54:03;26.92;;;14.18;;
17631;SDS011;8934;51.194;17.150;2024-01-30T00:56:51;27.27;;;11.75;;
17631;SDS011;8934;51.194;17.150;2024-01-30T00:59:39;30.92;;;11.95;;
17631;SDS011;8934;51.194;17.150;2024-01-30T01:02:26;31.02;;;10.32;;
17631;SDS011;8934;51.194;17.150;2024-01-30T01:05:15;28.13;;;11.57;;
17631;SDS011;8934;51.194;17.150;2024-01-30T01:08:03;31.98;;;13.55;;
17631;SDS011;8934;51.194;17.150;2024-01-30T01:10:51;28.88;;;10.43;;
17631;SDS011;8934;51.194;17.150;2024-01-30T01:13:38;20.65;;;10.82;;
17631;SDS011;8934;51.194;17.150;2024-01-30T01:16:25;26.70;;;11.30;;
17631;SDS011;8934;51.194;17.150;2024-01-30T01:19:13;31.00;;;12.32;;
17631;SDS011;8934;51.194;17.150;2024-01-30T01:22:01;28.73;;;10.45;;
17631;SDS011;8934;51.194;17.150;2024-01-30T01:24:49;36.65;;;12.27;;
17631;SDS011;8934;51.194;17.150;2024-01-30T01:27:37;31.70;;;14.07;;
17631;SDS011;8934;51.194;17.150;2024-01-30T01:30:27;20.25;;;11.40;;
17631;SDS011;8934;51.194;17.150;2024-01-30T01:33:14;28.20;;;11.10;;
17631;SDS011;8934;51.194;17.150;2024-01-30T01:36:02;27.40;;;14.18;;
17631;SDS011;8934;51.194;17.150;2024-01-30T01:38:51;26.45;;;10.45;;
17631;SDS011;8934;51.194;17.150;2024-01-30T01:41:38;38.55;;;12.63;;
17631;SDS011;8934;51.194;17.150;2024-01-30T01:44:26;35.85;;;13.07;;
17631;SDS011;8934;51.194;17.150;2024-01-30T01:47:14;34.58;;;14.68;;
17631;SDS011;8934;51.194;17.150;2024-01-30T01:50:02;24.75;;;12.30;;
17631;SDS011;8934;51.194;17.150;2024-01-30T01:52:50;25.23;;;11.88;;
17631;SDS011;8934;51.194;17.150;2024-01-30T01:55:39;29.65;;;12.40;;
17631;SDS011;8934;51.194;17.150;2024-01-30T01:58:27;31.60;;;14.52;;
17631;SDS011;8934;51.194;17.150;2024-01-30T02:01:16;21.90;;;12.60;;
17631;SDS011;8934;51.194;17.150;2024-01-30T02:04:06;26.80;;;10.48;;
17631;SDS011;8934;51.194;17.150;2024-01-30T02:06:54;27.67;;;10.52;;
17631;SDS011;8934;51.194;17.150;2024-01-30T02:09:41;26.80;;;11.45;;
17631;SDS011;8934;51.194;17.150;2024-01-30T02:12:30;36.88;;;12.98;;
17631;SDS011;8934;51.194;17.150;2024-01-30T02:15:18;34.95;;;13.75;;
17631;SDS011;8934;51.194;17.150;2024-01-30T02:18:05;32.00;;;11.52;;
17631;SDS011;8934;51.194;17.150;2024-01-30T02:20:53;33.30;;;13.05;;
17631;SDS011;8934;51.194;17.150;2024-01-30T02:23:44;25.20;;;11.63;;
17631;SDS011;8934;51.194;17.150;2024-01-30T02:26:33;31.23;;;10.90;;
17631;SDS011;8934;51.194;17.150;2024-01-30T02:29:20;31.70;;;12.98;;
17631;SDS011;8934;51.194;17.150;2024-01-30T02:32:08;25.92;;;10.30;;
17631;SDS011;8934;51.194;17.150;2024-01-30T02:34:55;27.40;;;10.07;;
17631;SDS011;8934;51.194;17.150;2024-01-30T02:37:42;20.05;;;8.10;;
17631;SDS011;8934;51.194;17.150;2024-01-30T02:40:31;19.23;;;9.35;;
17631;SDS011;8934;51.194;17.150;2024-01-30T02:43:18;19.55;;;8.40;;
17631;SDS011;8934;51.194;17.150;2024-01-30T02:46:06;18.08;;;8.63;;
17631;SDS011;8934;51.194;17.150;2024-01-30T02:48:53;10.27;;;5.95;;
17631;SDS011;8934;51.194;17.150;2024-01-30T02:51:40;34.28;;;10.68;;
17631;SDS011;8934;51.194;17.150;2024-01-30T02:54:28;23.45;;;9.55;;
17631;SDS011;8934;51.194;17.150;2024-01-30T02:57:17;17.35;;;8.95;;
17631;SDS011;8934;51.194;17.150;2024-01-30T03:00:05;26.55;;;9.20;;
17631;SDS011;8934;51.194;17.150;2024-01-30T03:02:55;17.23;;;9.95;;
17631;SDS011;8934;51.194;17.150;2024-01-30T03:05:42;21.63;;;9.10;;
17631;SDS011;8934;51.194;17.150;2024-01-30T03:08:29;20.75;;;9.15;;
17631;SDS011;8934;51.194;17.150;2024-01-30T03:11:16;21.50;;;9.55;;
17631;SDS011;8934;51.194;17.150;2024-01-30T03:14:05;18.92;;;9.18;;
17631;SDS011;8934;51.194;17.150;2024-01-30T03:16:53;24.08;;;9.00;;
17631;SDS011;8934;51.194;17.150;2024-01-30T03:19:41;22.75;;;9.52;;
17631;SDS011;8934;51.194;17.150;2024-01-30T03:22:28;21.42;;;9.63;;
17631;SDS011;8934;51.194;17.150;2024-01-30T03:25:15;13.98;;;8.05;;
17631;SDS011;8934;51.194;17.150;2024-01-30T03:28:03;19.15;;;9.23;;
17631;SDS011;8934;51.194;17.150;2024-01-30T03:30:52;24.50;;;10.38;;
17631;SDS011;8934;51.194;17.150;2024-01-30T03:33:39;16.65;;;7.93;;
17631;SDS011;8934;51.194;17.150;2024-01-30T03:36:27;12.27;;;6.63;;
17631;SDS011;8934;51.194;17.150;2024-01-30T03:39:14;16.70;;;7.32;;
17631;SDS011;8934;51.194;17.150;2024-01-30T03:42:02;15.65;;;6.55;;
17631;SDS011;8934;51.194;17.150;2024-01-30T03:44:49;26.52;;;7.97;;
17631;SDS011;8934;51.194;17.150;2024-01-30T03:47:40;15.15;;;7.28;;
17631;SDS011;8934;51.194;17.150;2024-01-30T03:50:30;18.85;;;8.60;;
17631;SDS011;8934;51.194;17.150;2024-01-30T03:53:17;18.65;;;7.47;;
17631;SDS011;8934;51.194;17.150;2024-01-30T03:56:05;17.27;;;6.85;;
17631;SDS011;8934;51.194;17.150;2024-01-30T03:58:52;12.75;;;6.35;;
17631;SDS011;8934;51.194;17.150;2024-01-30T04:01:39;17.17;;;7.68;;
17631;SDS011;8934;51.194;17.150;2024-01-30T04:04:28;32.70;;;7.93;;
17631;SDS011;8934;51.194;17.150;2024-01-30T04:07:16;14.27;;;7.32;;
17631;SDS011;8934;51.194;17.150;2024-01-30T04:10:07;22.02;;;8.05;;
17631;SDS011;8934;51.194;17.150;2024-01-30T04:12:56;15.77;;;7.72;;
17631;SDS011;8934;51.194;17.150;2024-01-30T04:15:43;18.60;;;8.07;;
17631;SDS011;8934;51.194;17.150;2024-01-30T04:18:30;16.02;;;9.30;;
17631;SDS011;8934;51.194;17.150;2024-01-30T04:21:21;17.95;;;7.38;;
17631;SDS011;8934;51.194;17.150;2024-01-30T04:24:08;19.90;;;8.13;;
17631;SDS011;8934;51.194;17.150;2024-01-30T04:26:56;15.02;;;7.50;;
17631;SDS011;8934;51.194;17.150;2024-01-30T04:29:43;20.35;;;7.45;;
17631;SDS011;8934;51.194;17.150;2024-01-30T04:32:31;15.68;;;7.85;;
17631;SDS011;8934;51.194;17.150;2024-01-30T04:35:19;20.38;;;8.23;;
17631;SDS011;8934;51.194;17.150;2024-01-30T04:38:10;22.50;;;10.10;;
17631;SDS011;8934;51.194;17.150;2024-01-30T04:40:58;22.45;;;10.38;;
17631;SDS011;8934;51.194;17.150;2024-01-30T04:43:45;19.45;;;7.63;;
17631;SDS011;8934;51.194;17.150;2024-01-30T04:46:32;20.13;;;10.38;;
17631;SDS011;8934;51.194;17.150;2024-01-30T04:49:20;26.52;;;10.90;;
17631;SDS011;8934;51.194;17.150;2024-01-30T04:52:09;21.90;;;11.73;;
17631;SDS011;8934;51.194;17.150;2024-01-30T04:54:58;16.65;;;9.02;;
17631;SDS011;8934;51.194;17.150;2024-01-30T04:57:45;20.38;;;8.77;;
17631;SDS011;8934;51.194;17.150;2024-01-30T05:00:33;19.88;;;9.77;;
17631;SDS011;8934;51.194;17.150;2024-01-30T05:03:21;18.17;;;9.20;;
17631;SDS011;8934;51.194;17.150;2024-01-30T05:06:10;22.40;;;7.65;;
17631;SDS011;8934;51.194;17.150;2024-01-30T05:08:57;22.85;;;7.05;;
17631;SDS011;8934;51.194;17.150;2024-01-30T05:11:45;20.77;;;9.00;;
17631;SDS011;8934;51.194;17.150;2024-01-30T05:14:33;14.18;;;7.28;;
17631;SDS011;8934;51.194;17.150;2024-01-30T05:17:20;16.15;;;7.72;;
17631;SDS011;8934;51.194;17.150;2024-01-30T05:20:08;12.48;;;7.45;;
17631;SDS011;8934;51.194;17.150;2024-01-30T05:22:56;14.48;;;7.03;;
17631;SDS011;8934;51.194;17.150;2024-01-30T05:25:44;14.75;;;7.05;;
17631;SDS011;8934;51.194;17.150;2024-01-30T05:28:33;19.33;;;7.28;;
17631;SDS011;8934;51.194;17.150;2024-01-30T05:31:20;17.55;;;7.85;;
17631;SDS011;8934;51.194;17.150;2024-01-30T05:34:07;18.45;;;7.45;;
17631;SDS011;8934;51.194;17.150;2024-01-30T05:36:54;33.38;;;9.73;;
17631;SDS011;8934;51.194;17.150;2024-01-30T05:39:42;19.70;;;7.97;;
17631;SDS011;8934;51.194;17.150;2024-01-30T05:42:30;23.05;;;8.80;;
17631;SDS011;8934;51.194;17.150;2024-01-30T05:45:18;20.10;;;7.95;;
17631;SDS011;8934;51.194;17.150;2024-01-30T05:48:06;23.75;;;8.82;;
17631;SDS011;8934;51.194;17.150;2024-01-30T05:50:54;26.17;;;9.10;;
17631;SDS011;8934;51.194;17.150;2024-01-30T05:53:42;19.35;;;8.50;;
17631;SDS011;8934;51.194;17.150;2024-01-30T05:56:29;23.15;;;7.93;;
17631;SDS011;8934;51.194;17.150;2024-01-30T05:59:16;15.30;;;8.45;;
17631;SDS011;8934;51.194;17.150;2024-01-30T06:02:05;23.02;;;8.23;;
17631;SDS011;8934;51.194;17.150;2024-01-30T06:04:53;21.40;;;8.57;;
17631;SDS011;8934;51.194;17.150;2024-01-30T06:07:40;14.43;;;7.22;;
17631;SDS011;8934;51.194;17.150;2024-01-30T06:10:27;17.42;;;8.18;;
17631;SDS011;8934;51.194;17.150;2024-01-30T06:13:14;28.13;;;6.78;;
17631;SDS011;8934;51.194;17.150;2024-01-30T06:16:02;13.43;;;7.85;;
17631;SDS011;8934;51.194;17.150;2024-01-30T06:18:51;18.35;;;7.43;;
17631;SDS011;8934;51.194;17.150;2024-01-30T06:21:38;15.30;;;6.90;;
17631;SDS011;8934;51.194;17.150;2024-01-30T06:24:25;30.40;;;8.30;;
17631;SDS011;8934;51.194;17.150;2024-01-30T06:27:13;17.45;;;6.03;;
17631;SDS011;8934;51.194;17.150;2024-01-30T06:30:01;13.48;;;7.80;;
17631;SDS011;8934;51.194;17.150;2024-01-30T06:32:48;18.00;;;8.93;;
17631;SDS011;8934;51.194;17.150;2024-01-30T06:35:37;17.25;;;8.05;;
17631;SDS011;8934;51.194;17.150;2024-01-30T06:38:29;24.25;;;9.73;;
17631;SDS011;8934;51.194;17.150;2024-01-30T06:41:17;20.25;;;8.63;;
17631;SDS011;8934;51.194;17.150;2024-01-30T06:44:04;19.83;;;9.27;;
17631;SDS011;8934;51.194;17.150;2024-01-30T06:46:54;16.75;;;7.00;;
17631;SDS011;8934;51.194;17.150;2024-01-30T06:49:41;18.13;;;7.70;;
17631;SDS011;8934;51.194;17.150;2024-01-30T06:52:31;17.73;;;9.43;;
17631;SDS011;8934;51.194;17.150;2024-01-30T06:55:18;23.58;;;7.93;;
17631;SDS011;8934;51.194;17.150;2024-01-30T06:58:05;15.57;;;8.65;;
17631;SDS011;8934;51.194;17.150;2024-01-30T07:00:52;20.77;;;8.88;;
17631;SDS011;8934;51.194;17.150;2024-01-30T07:03:39;15.85;;;7.97;;
17631;SDS011;8934;51.194;17.150;2024-01-30T07:06:27;26.38;;;11.32;;
17631;SDS011;8934;51.194;17.150;2024-01-30T07:09:15;24.02;;;10.35;;
17631;SDS011;8934;51.194;17.150;2024-01-30T07:12:03;31.52;;;10.60;;
17631;SDS011;8934;51.194;17.150;2024-01-30T07:14:51;28.50;;;11.68;;
17631;SDS011;8934;51.194;17.150;2024-01-30T07:17:39;30.08;;;12.02;;
17631;SDS011;8934;51.194;17.150;2024-01-30T07:20:26;23.70;;;12.77;;
17631;SDS011;8934;51.194;17.150;2024-01-30T07:23:14;29.65;;;14.02;;
17631;SDS011;8934;51.194;17.150;2024-01-30T07:26:04;32.58;;;12.32;;
17631;SDS011;8934;51.194;17.150;2024-01-30T07:28:52;28.83;;;14.23;;
17631;SDS011;8934;51.194;17.150;2024-01-30T07:31:39;31.25;;;13.00;;
17631;SDS011;8934;51.194;17.150;2024-01-30T07:34:26;33.88;;;14.77;;
17631;SDS011;8934;51.194;17.150;2024-01-30T07:37:14;40.20;;;15.98;;
17631;SDS011;8934;51.194;17.150;2024-01-30T07:40:02;37.63;;;15.70;;
17631;SDS011;8934;51.194;17.150;2024-01-30T07:42:52;31.73;;;14.68;;
17631;SDS011;8934;51.194;17.150;2024-01-30T07:45:41;39.22;;;16.30;;
17631;SDS011;8934;51.194;17.150;2024-01-30T07:48:28;36.80;;;14.10;;
17631;SDS011;8934;51.194;17.150;2024-01-30T07:51:16;38.08;;;17.38;;
17631;SDS011;8934;51.194;17.150;2024-01-30T07:54:03;37.90;;;15.43;;
17631;SDS011;8934;51.194;17.150;2024-01-30T07:56:50;48.63;;;16.50;;
17631;SDS011;8934;51.194;17.150;2024-01-30T07:59:39;32.60;;;14.30;;
17631;SDS011;8934;51.194;17.150;2024-01-30T08:02:28;29.52;;;13.13;;
17631;SDS011;8934;51.194;17.150;2024-01-30T08:05:15;32.20;;;12.50;;
17631;SDS011;8934;51.194;17.150;2024-01-30T08:08:03;29.35;;;12.80;;
17631;SDS011;8934;51.194;17.150;2024-01-30T08:10:50;28.40;;;12.63;;
17631;SDS011;8934;51.194;17.150;2024-01-30T08:13:37;20.88;;;10.48;;
17631;SDS011;8934;51.194;17.150;2024-01-30T08:16:27;41.53;;;15.18;;
17631;SDS011;8934;51.194;17.150;2024-01-30T08:19:15;25.30;;;10.80;;
17631;SDS011;8934;51.194;17.150;2024-01-30T08:22:02;24.73;;;12.20;;
17631;SDS011;8934;51.194;17.150;2024-01-30T08:24:50;24.60;;;11.68;;
17631;SDS011;8934;51.194;17.150;2024-01-30T08:27:37;33.70;;;12.38;;
17631;SDS011;8934;51.194;17.150;2024-01-30T08:30:24;25.05;;;10.93;;
17631;SDS011;8934;51.194;17.150;2024-01-30T08:33:13;30.92;;;12.52;;
17631;SDS011;8934;51.194;17.150;2024-01-30T08:36:01;32.38;;;12.20;;
17631;SDS011;8934;51.194;17.150;2024-01-30T08:38:49;28.38;;;10.45;;
17631;SDS011;8934;51.194;17.150;2024-01-30T08:41:39;20.85;;;10.32;;
17631;SDS011;8934;51.194;17.150;2024-01-30T08:44:27;22.83;;;9.65;;
17631;SDS011;8934;51.194;17.150;2024-01-30T08:47:14;28.80;;;8.85;;
17631;SDS011;8934;51.194;17.150;2024-01-30T08:50:04;19.27;;;10.15;;
17631;SDS011;8934;51.194;17.150;2024-01-30T08:52:53;16.70;;;8.80;;
17631;SDS011;8934;51.194;17.150;2024-01-30T08:55:40;17.27;;;7.45;;
17631;SDS011;8934;51.194;17.150;2024-01-30T08:58:27;13.55;;;6.30;;
17631;SDS011;8934;51.194;17.150;2024-01-30T09:01:15;15.52;;;6.80;;
17631;SDS011;8934;51.194;17.150;2024-01-30T09:04:02;11.75;;;5.93;;
17631;SDS011;8934;51.194;17.150;2024-01-30T09:06:52;10.38;;;5.38;;
17631;SDS011;8934;51.194;17.150;2024-01-30T09:09:40;11.95;;;5.25;;
17631;SDS011;8934;51.194;17.150;2024-01-30T09:12:28;9.65;;;4.32;;
17631;SDS011;8934;51.194;17.150;2024-01-30T09:15:15;9.40;;;4.25;;
17631;SDS011;8934;51.194;17.150;2024-01-30T09:18:02;13.40;;;4.47;;
17631;SDS011;8934;51.194;17.150;2024-01-30T09:20:49;7.45;;;3.97;;
17631;SDS011;8934;51.194;17.150;2024-01-30T09:23:38;7.70;;;3.85;;
17631;SDS011;8934;51.194;17.150;2024-01-30T09:26:26;7.63;;;4.07;;
17631;SDS011;8934;51.194;17.150;2024-01-30T09:29:13;9.73;;;4.65;;
17631;SDS011;8934;51.194;17.150;2024-01-30T09:32:00;9.88;;;4.68;;
17631;SDS011;8934;51.194;17.150;2024-01-30T09:34:48;9.63;;;4.22;;
17631;SDS011;8934;51.194;17.150;2024-01-30T09:37:35;8.98;;;4.00;;
17631;SDS011;8934;51.194;17.150;2024-01-30T09:40:24;7.95;;;4.20;;
17631;SDS011;8934;51.194;17.150;2024-01-30T09:43:13;12.23;;;4.78;;
17631;SDS011;8934;51.194;17.150;2024-01-30T09:46:11;6.75;;;3.20;;
17631;SDS011;8934;51.194;17.150;2024-01-30T09:49:00;6.10;;;3.22;;
17631;SDS011;8934;51.194;17.150;2024-01-30T09:51:49;4.70;;;2.70;;
17631;SDS011;8934;51.194;17.150;2024-01-30T09:54:37;6.78;;;3.53;;
17631;SDS011;8934;51.194;17.150;2024-01-30T09:57:26;8.23;;;3.55;;
17631;SDS011;8934;51.194;17.150;2024-01-30T10:00:13;6.38;;;3.13;;
17631;SDS011;8934;51.194;17.150;2024-01-30T10:03:01;9.13;;;4.15;;
17631;SDS011;8934;51.194;17.150;2024-01-30T10:05:50;8.38;;;4.22;;
17631;SDS011;8934;51.194;17.150;2024-01-30T10:08:39;6.38;;;3.20;;
17631;SDS011;8934;51.194;17.150;2024-01-30T10:11:26;7.97;;;4.25;;
17631;SDS011;8934;51.194;17.150;2024-01-30T10:14:15;7.25;;;3.83;;
17631;SDS011;8934;51.194;17.150;2024-01-30T10:17:03;4.63;;;3.17;;
17631;SDS011;8934;51.194;17.150;2024-01-30T10:20:04;6.15;;;2.92;;
17631;SDS011;8934;51.194;17.150;2024-01-30T10:22:53;6.10;;;2.90;;
17631;SDS011;8934;51.194;17.150;2024-01-30T10:25:40;5.45;;;3.22;;
17631;SDS011;8934;51.194;17.150;2024-01-30T10:28:27;5.57;;;3.13;;
17631;SDS011;8934;51.194;17.150;2024-01-30T10:31:18;7.78;;;2.83;;
17631;SDS011;8934;51.194;17.150;2024-01-30T10:34:05;10.25;;;3.03;;
17631;SDS011;8934;51.194;17.150;2024-01-30T10:37:07;3.40;;;2.30;;
17631;SDS011;8934;51.194;17.150;2024-01-30T10:39:59;6.28;;;2.95;;
17631;SDS011;8934;51.194;17.150;2024-01-30T10:42:51;5.50;;;2.55;;
17631;SDS011;8934;51.194;17.150;2024-01-30T10:45:42;6.20;;;3.20;;
17631;SDS011;8934;51.194;17.150;2024-01-30T10:48:34;4.70;;;2.25;;
17631;SDS011;8934;51.194;17.150;2024-01-30T10:51:29;3.83;;;2.50;;
17631;SDS011;8934;51.194;17.150;2024-01-30T10:54:17;6.03;;;2.95;;
17631;SDS011;8934;51.194;17.150;2024-01-30T10:57:06;4.43;;;2.55;;
17631;SDS011;8934;51.194;17.150;2024-01-30T10:59:56;5.60;;;2.92;;
17631;SDS011;8934;51.194;17.150;2024-01-30T11:02:45;4.30;;;2.33;;
17631;SDS011;8934;51.194;17.150;2024-01-30T11:05:34;4.38;;;3.25;;
17631;SDS011;8934;51.194;17.150;2024-01-30T11:08:23;4.82;;;2.40;;
17631;SDS011;8934;51.194;17.150;2024-01-30T11:11:11;5.10;;;3.15;;
17631;SDS011;8934;51.194;17.150;2024-01-30T11:14:02;4.30;;;2.63;;
17631;SDS011;8934;51.194;17.150;2024-01-30T11:16:50;5.10;;;2.50;;
17631;SDS011;8934;51.194;17.150;2024-01-30T11:19:37;8.30;;;2.85;;
17631;SDS011;8934;51.194;17.150;2024-01-30T11:22:26;4.13;;;2.60;;
17631;SDS011;8934;51.194;17.150;2024-01-30T11:25:17;6.38;;;3.03;;
17631;SDS011;8934;51.194;17.150;2024-01-30T11:28:06;3.97;;;2.60;;
17631;SDS011;8934;51.194;17.150;2024-01-30T11:31:04;5.07;;;2.75;;
17631;SDS011;8934;51.194;17.150;2024-01-30T11:33:54;5.47;;;2.72;;
17631;SDS011;8934;51.194;17.150;2024-01-30T11:36:43;5.90;;;2.22;;
17631;SDS011;8934;51.194;17.150;2024-01-30T11:39:33;4.50;;;2.30;;
17631;SDS011;8934;51.194;17.150;2024-01-30T11:42:23;5.78;;;2.28;;
17631;SDS011;8934;51.194;17.150;2024-01-30T11:45:11;4.20;;;2.17;;
17631;SDS011;8934;51.194;17.150;2024-01-30T11:47:58;3.45;;;2.22;;
17631;SDS011;8934;51.194;17.150;2024-01-30T11:50:49;8.23;;;3.25;;
17631;SDS011;8934;51.194;17.150;2024-01-30T11:53:37;2.92;;;2.00;;
17631;SDS011;8934;51.194;17.150;2024-01-30T11:56:26;7.57;;;3.45;;
17631;SDS011;8934;51.194;17.150;2024-01-30T11:59:14;5.43;;;3.05;;
17631;SDS011;8934;51.194;17.150;2024-01-30T12:02:01;9.70;;;4.18;;
17631;SDS011;8934;51.194;17.150;2024-01-30T12:04:48;6.25;;;2.85;;
17631;SDS011;8934;51.194;17.150;2024-01-30T12:07:36;6.63;;;2.83;;
17631;SDS011;8934;51.194;17.150;2024-01-30T12:10:24;7.57;;;2.80;;
17631;SDS011;8934;51.194;17.150;2024-01-30T12:13:14;10.57;;;3.70;;
17631;SDS011;8934;51.194;17.150;2024-01-30T12:16:03;4.97;;;2.80;;
17631;SDS011;8934;51.194;17.150;2024-01-30T12:18:58;5.90;;;2.92;;
17631;SDS011;8934;51.194;17.150;2024-01-30T12:21:53;7.07;;;3.08;;
17631;SDS011;8934;51.194;17.150;2024-01-30T12:24:41;8.95;;;3.97;;
17631;SDS011;8934;51.194;17.150;2024-01-30T12:27:29;4.70;;;3.10;;
17631;SDS011;8934;51.194;17.150;2024-01-30T12:30:18;6.60;;;4.45;;
17631;SDS011;8934;51.194;17.150;2024-01-30T12:33:07;6.97;;;3.22;;
17631;SDS011;8934;51.194;17.150;2024-01-30T12:35:55;7.65;;;2.85;;
17631;SDS011;8934;51.194;17.150;2024-01-30T12:38:48;6.88;;;4.60;;
17631;SDS011;8934;51.194;17.150;2024-01-30T12:41:36;6.55;;;4.38;;
17631;SDS011;8934;51.194;17.150;2024-01-30T12:44:23;7.97;;;5.40;;
17631;SDS011;8934;51.194;17.150;2024-01-30T12:47:12;8.05;;;5.30;;
17631;SDS011;8934;51.194;17.150;2024-01-30T12:50:01;8.38;;;4.00;;
17631;SDS011;8934;51.194;17.150;2024-01-30T12:52:49;6.65;;;4.80;;
17631;SDS011;8934;51.194;17.150;2024-01-30T12:55:37;8.60;;;5.28;;
17631;SDS011;8934;51.194;17.150;2024-01-30T12:58:24;7.68;;;5.25;;
17631;SDS011;8934;51.194;17.150;2024-01-30T13:01:12;7.65;;;5.25;;
17631;SDS011;8934;51.194;17.150;2024-01-30T13:04:00;7.70;;;5.20;;
17631;SDS011;8934;51.194;17.150;2024-01-30T13:06:48;8.45;;;5.65;;
17631;SDS011;8934;51.194;17.150;2024-01-30T13:09:36;7.45;;;5.15;;
17631;SDS011;8934;51.194;17.150;2024-01-30T13:12:23;9.60;;;5.47;;
17631;SDS011;8934;51.194;17.150;2024-01-30T13:15:11;10.50;;;6.03;;
17631;SDS011;8934;51.194;17.150;2024-01-30T13:17:58;9.60;;;5.75;;
17631;SDS011;8934;51.194;17.150;2024-01-30T13:20:47;10.50;;;6.25;;
17631;SDS011;8934;51.194;17.150;2024-01-30T13:23:34;9.52;;;5.75;;
17631;SDS011;8934;51.194;17.150;2024-01-30T13:26:21;8.80;;;5.88;;
17631;SDS011;8934;51.194;17.150;2024-01-30T13:29:09;8.43;;;5.85;;
17631;SDS011;8934;51.194;17.150;2024-01-30T13:31:56;9.73;;;5.70;;
17631;SDS011;8934;51.194;17.150;2024-01-30T13:34:44;6.15;;;3.55;;
17631;SDS011;8934;51.194;17.150;2024-01-30T13:37:33;7.60;;;3.55;;
17631;SDS011;8934;51.194;17.150;2024-01-30T13:40:20;9.77;;;3.92;;
17631;SDS011;8934;51.194;17.150;2024-01-30T13:43:08;15.88;;;4.57;;
17631;SDS011;8934;51.194;17.150;2024-01-30T13:45:56;8.43;;;3.08;;
17631;SDS011;8934;51.194;17.150;2024-01-30T13:48:43;5.88;;;3.00;;
17631;SDS011;8934;51.194;17.150;2024-01-30T13:51:31;6.20;;;3.33;;
17631;SDS011;8934;51.194;17.150;2024-01-30T13:54:20;7.63;;;3.42;;
17631;SDS011;8934;51.194;17.150;2024-01-30T13:57:07;9.90;;;4.10;;
17631;SDS011;8934;51.194;17.150;2024-01-30T13:59:54;3.78;;;3.05;;
17631;SDS011;8934;51.194;17.150;2024-01-30T14:02:43;5.05;;;3.33;;
17631;SDS011;8934;51.194;17.150;2024-01-30T14:05:30;6.63;;;4.35;;
17631;SDS011;8934;51.194;17.150;2024-01-30T14:08:18;6.05;;;3.28;;
17631;SDS011;8934;51.194;17.150;2024-01-30T14:11:08;5.35;;;3.33;;
17631;SDS011;8934;51.194;17.150;2024-01-30T14:13:56;8.57;;;3.63;;
17631;SDS011;8934;51.194;17.150;2024-01-30T14:16:43;9.55;;;4.15;;
17631;SDS011;8934;51.194;17.150;2024-01-30T14:19:31;7.85;;;3.80;;
17631;SDS011;8934;51.194;17.150;2024-01-30T14:22:18;6.75;;;3.83;;
17631;SDS011;8934;51.194;17.150;2024-01-30T14:25:06;7.57;;;3.92;;
17631;SDS011;8934;51.194;17.150;2024-01-30T14:27:56;12.65;;;4.32;;
17631;SDS011;8934;51.194;17.150;2024-01-30T14:30:43;7.43;;;4.50;;
17631;SDS011;8934;51.194;17.150;2024-01-30T14:33:30;13.93;;;6.07;;
17631;SDS011;8934;51.194;17.150;2024-01-30T14:36:18;12.35;;;6.25;;
17631;SDS011;8934;51.194;17.150;2024-01-30T14:39:06;10.90;;;5.25;;
17631;SDS011;8934;51.194;17.150;2024-01-30T14:41:53;12.55;;;6.57;;
17631;SDS011;8934;51.194;17.150;2024-01-30T14:44:42;11.07;;;6.05;;
17631;SDS011;8934;51.194;17.150;2024-01-30T14:47:29;18.55;;;8.77;;
17631;SDS011;8934;51.194;17.150;2024-01-30T14:50:17;28.10;;;12.73;;
17631;SDS011;8934;51.194;17.150;2024-01-30T14:53:05;29.95;;;14.52;;
17631;SDS011;8934;51.194;17.150;2024-01-30T14:55:52;30.60;;;13.88;;
17631;SDS011;8934;51.194;17.150;2024-01-30T14:58:42;18.77;;;8.63;;
17631;SDS011;8934;51.194;17.150;2024-01-30T15:01:31;16.15;;;6.78;;
17631;SDS011;8934;51.194;17.150;2024-01-30T15:04:18;13.85;;;5.55;;
17631;SDS011;8934;51.194;17.150;2024-01-30T15:07:06;11.38;;;5.00;;
17631;SDS011;8934;51.194;17.150;2024-01-30T15:09:54;7.90;;;3.88;;
17631;SDS011;8934;51.194;17.150;2024-01-30T15:12:41;10.38;;;5.22;;
17631;SDS011;8934;51.194;17.150;2024-01-30T15:15:28;18.85;;;6.40;;
17631;SDS011;8934;51.194;17.150;2024-01-30T15:18:18;19.67;;;7.45;;
17631;SDS011;8934;51.194;17.150;2024-01-30T15:21:05;19.00;;;7.13;;
17631;SDS011;8934;51.194;17.150;2024-01-30T15:23:52;19.55;;;7.68;;
17631;SDS011;8934;51.194;17.150;2024-01-30T15:26:40;17.40;;;7.25;;
17631;SDS011;8934;51.194;17.150;2024-01-30T15:29:27;18.42;;;6.50;;
17631;SDS011;8934;51.194;17.150;2024-01-30T15:32:15;13.40;;;5.72;;
17631;SDS011;8934;51.194;17.150;2024-01-30T15:35:04;13.98;;;6.22;;
17631;SDS011;8934;51.194;17.150;2024-01-30T15:37:52;19.08;;;7.35;;
17631;SDS011;8934;51.194;17.150;2024-01-30T15:40:40;13.07;;;6.75;;
17631;SDS011;8934;51.194;17.150;2024-01-30T15:43:27;13.68;;;7.03;;
17631;SDS011;8934;51.194;17.150;2024-01-30T15:46:14;14.98;;;7.55;;
17631;SDS011;8934;51.194;17.150;2024-01-30T15:49:02;12.65;;;6.63;;
17631;SDS011;8934;51.194;17.150;2024-01-30T15:51:51;17.05;;;7.45;;
17631;SDS011;8934;51.194;17.150;2024-01-30T15:54:39;14.32;;;7.38;;
17631;SDS011;8934;51.194;17.150;2024-01-30T15:57:26;20.88;;;8.20;;
17631;SDS011;8934;51.194;17.150;2024-01-30T16:00:15;22.63;;;9.43;;
17631;SDS011;8934;51.194;17.150;2024-01-30T16:03:03;22.05;;;9.13;;
17631;SDS011;8934;51.194;17.150;2024-01-30T16:05:51;20.63;;;8.45;;
17631;SDS011;8934;51.194;17.150;2024-01-30T16:08:40;21.75;;;8.43;;
17631;SDS011;8934;51.194;17.150;2024-01-30T16:11:27;27.35;;;9.07;;
17631;SDS011;8934;51.194;17.150;2024-01-30T16:14:17;17.85;;;7.88;;
17631;SDS011;8934;51.194;17.150;2024-01-30T16:17:05;22.13;;;9.18;;
17631;SDS011;8934;51.194;17.150;2024-01-30T16:19:52;19.20;;;8.70;;
17631;SDS011;8934;51.194;17.150;2024-01-30T16:22:39;17.42;;;7.30;;
17631;SDS011;8934;51.194;17.150;2024-01-30T16:25:28;18.92;;;8.50;;
17631;SDS011;8934;51.194;17.150;2024-01-30T16:28:15;12.80;;;7.05;;
17631;SDS011;8934;51.194;17.150;2024-01-30T16:31:03;19.88;;;8.30;;
17631;SDS011;8934;51.194;17.150;2024-01-30T16:33:50;24.90;;;9.77;;
17631;SDS011;8934;51.194;17.150;2024-01-30T16:36:38;18.80;;;8.70;;
17631;SDS011;8934;51.194;17.150;2024-01-30T16:39:25;23.25;;;9.82;;